Time;durP1;ratioP1;P1;durP2;ratioP2;P2;SDS_P1;SDS_P2;PMS_P1;PMS_P2;Temp;Humidity;BMP_temperature;BMP_pressure;BME280_temperature;BME280_humidity;BME280_pressure;Samples;Min_cycle;Max_cycle;Signal;HPM_P1;HPM_P2
2022/03/07 00:01:53;;;;;;;4.37;1.67;;;;;;;5.93;34.96;98583.75;5021887;28;20067;-70
2022/03/07 00:04:19;;;;;;;2.53;1.70;;;;;;;5.80;35.05;98580.63;5038314;28;20186;-70
2022/03/07 00:06:46;;;;;;;1.73;1.40;;;;;;;5.90;35.20;98577.00;5038281;28;20486;-70
2022/03/07 00:09:12;;;;;;;5.87;1.80;;;;;;;5.81;35.15;98584.94;5072759;28;20052;-70
2022/03/07 00:11:38;;;;;;;3.33;1.87;;;;;;;5.74;35.15;98579.47;5038208;28;20063;-69
2022/03/07 00:14:04;;;;;;;3.80;1.60;;;;;;;5.79;35.26;98573.72;5038198;28;20047;-70
2022/03/07 00:16:30;;;;;;;4.13;1.63;;;;;;;5.84;35.36;98577.59;5037897;28;20048;-70
2022/03/07 00:18:57;;;;;;;3.40;1.67;;;;;;;5.91;35.25;98572.53;5054548;28;20052;-70
2022/03/07 00:21:23;;;;;;;2.53;1.50;;;;;;;5.83;35.20;98585.63;5054415;28;20060;-70
2022/03/07 00:23:49;;;;;;;1.70;1.60;;;;;;;5.81;35.18;98577.03;5037928;28;20041;-69
2022/03/07 00:26:17;;;;;;;1.60;1.50;;;;;;;5.94;35.54;98570.41;5054677;28;20054;-70
2022/03/07 00:28:43;;;;;;;5.07;1.80;;;;;;;5.80;35.44;98567.47;5021638;28;20040;-69
2022/03/07 00:31:11;;;;;;;3.87;1.50;;;;;;;5.73;35.20;98548.00;5054467;28;20040;-70
2022/03/07 00:33:37;;;;;;;2.00;1.70;;;;;;;5.75;35.37;98557.41;5037686;28;20584;-70
2022/03/07 00:36:04;;;;;;;3.77;1.70;;;;;;;5.91;35.42;98567.25;5070844;28;20123;-70
2022/03/07 00:38:30;;;;;;;1.50;1.40;;;;;;;5.83;35.47;98568.03;5054309;28;20141;-70
2022/03/07 00:40:56;;;;;;;3.37;1.70;;;;;;;5.82;35.40;98568.19;5037531;28;20101;-70
2022/03/07 00:43:22;;;;;;;2.93;1.27;;;;;;;5.82;35.47;98574.28;5038037;28;20048;-69
2022/03/07 00:45:48;;;;;;;3.17;1.50;;;;;;;5.88;35.77;98570.19;5070790;28;20531;-69
2022/03/07 00:48:15;;;;;;;2.13;1.50;;;;;;;5.59;35.68;98525.69;5071715;28;20048;-69
2022/03/07 00:50:43;;;;;;;3.33;1.47;;;;;;;5.93;35.82;98555.59;5037638;28;20040;-69
2022/03/07 00:53:10;;;;;;;2.40;1.47;;;;;;;5.91;35.50;98561.97;5053651;28;20098;-70
2022/03/07 00:55:38;;;;;;;2.00;1.60;;;;;;;5.92;35.50;98555.75;5037182;28;20105;-70
2022/03/07 00:58:04;;;;;;;2.53;1.50;;;;;;;5.82;35.50;98558.47;5070552;28;20048;-70
2022/03/07 01:00:31;;;;;;;2.30;1.60;;;;;;;5.88;35.69;98555.22;5037270;28;20456;-70
2022/03/07 01:02:57;;;;;;;3.17;1.87;;;;;;;5.94;35.42;98562.50;5054098;28;20131;-70
2022/03/07 01:05:23;;;;;;;4.17;1.40;;;;;;;5.91;35.27;98546.16;5071453;28;20090;-70
2022/03/07 01:07:49;;;;;;;2.07;1.50;;;;;;;5.95;35.13;98547.53;5038693;28;20130;-70
2022/03/07 01:10:14;;;;;;;1.83;1.50;;;;;;;6.00;35.17;98556.59;5037843;28;20143;-70
2022/03/07 01:12:40;;;;;;;3.47;1.60;;;;;;;6.03;35.31;98543.13;5037217;28;20420;-69
2022/03/07 01:15:08;;;;;;;3.63;1.60;;;;;;;6.07;35.20;98546.28;5037055;28;20489;-70
2022/03/07 01:17:34;;;;;;;4.00;1.40;;;;;;;6.07;35.29;98541.00;5070316;28;20040;-70
2022/03/07 01:20:01;;;;;;;2.07;1.70;;;;;;;5.82;35.61;98511.06;5070259;28;20048;-71
2022/03/07 01:22:26;;;;;;;2.30;1.53;;;;;;;5.83;35.99;98540.84;5053445;28;20068;-70
2022/03/07 01:24:52;;;;;;;2.00;1.43;;;;;;;5.90;35.75;98532.19;5036953;28;20468;-70
2022/03/07 01:27:18;;;;;;;2.03;1.60;;;;;;;5.90;35.62;98534.81;5020270;28;20048;-70
2022/03/07 01:29:44;;;;;;;3.60;1.40;;;;;;;5.91;35.62;98536.47;5036677;28;20523;-70
2022/03/07 01:32:09;;;;;;;2.10;1.40;;;;;;;5.83;35.76;98522.41;5020167;28;20072;-70
2022/03/07 01:34:35;;;;;;;4.83;1.57;;;;;;;5.95;35.88;98527.25;5053552;28;20492;-70
2022/03/07 01:37:01;;;;;;;1.43;1.30;;;;;;;5.91;35.95;98541.75;5019906;28;20044;-70
2022/03/07 01:39:27;;;;;;;2.50;1.30;;;;;;;5.83;35.67;98539.03;5050923;28;20041;-70
2022/03/07 01:41:53;;;;;;;3.10;1.20;;;;;;;5.82;35.92;98537.41;5034763;28;20412;-70
2022/03/07 01:44:21;;;;;;;1.20;1.10;;;;;;;5.83;35.87;98506.59;5050556;28;20408;-70
2022/03/07 01:46:48;;;;;;;2.80;1.20;;;;;;;5.78;35.93;98532.56;5034429;28;20051;-70
2022/03/07 01:49:14;;;;;;;1.80;1.07;;;;;;;5.68;36.19;98537.94;5034403;28;20044;-70
2022/03/07 01:51:42;;;;;;;1.40;1.30;;;;;;;5.76;36.09;98510.81;5018213;28;20036;-70
2022/03/07 01:54:14;;;;;;;4.00;1.30;;;;;;;5.73;36.29;98527.75;5050748;28;20044;-71
2022/03/07 01:56:45;;;;;;;1.57;1.23;;;;;;;5.73;36.35;98533.03;5069382;28;20492;-70
2022/03/07 01:59:17;;;;;;;3.33;1.30;;;;;;;5.88;36.28;98530.66;5037206;28;20097;-69
2022/03/07 02:01:43;;;;;;;3.33;1.23;;;;;;;5.61;36.18;98534.28;5069372;28;20504;-70
2022/03/07 02:04:10;;;;;;;1.90;1.20;;;;;;;5.67;36.36;98535.44;5052587;28;20041;-70
2022/03/07 02:06:38;;;;;;;2.20;1.30;;;;;;;5.65;36.44;98524.22;5052289;28;20209;-70
2022/03/07 02:09:06;;;;;;;1.30;1.13;;;;;;;5.69;36.45;98536.13;5052911;28;20063;-70
2022/03/07 02:11:38;;;;;;;1.30;1.20;;;;;;;5.53;36.58;98536.84;5037496;28;20508;-70
2022/03/07 02:14:12;;;;;;;1.93;1.10;;;;;;;5.81;36.51;98530.44;5052669;28;20064;-70
2022/03/07 02:16:38;;;;;;;2.70;1.10;;;;;;;5.39;36.47;98503.16;5069590;28;20093;-70
2022/03/07 02:19:04;;;;;;;2.77;1.30;;;;;;;5.57;36.68;98540.81;5036235;28;20032;-71
2022/03/07 02:21:33;;;;;;;2.67;1.10;;;;;;;5.71;36.56;98523.63;5036960;28;20056;-70
2022/03/07 02:24:19;;;;;;;3.80;1.60;;;;;;;5.63;36.74;98536.75;5055995;28;20106;-70
2022/03/07 02:27:03;;;;;;;1.67;1.20;;;;;;;5.80;36.85;98541.97;5038051;28;20481;-70
2022/03/07 02:29:30;;;;;;;;;;;;;;;6.08;36.39;98548.75;5069801;28;20048;-70
2022/03/07 02:32:00;;;;;;;1.63;1.10;;;;;;;5.62;36.71;98541.19;5037241;28;20011;-70
2022/03/07 02:34:29;;;;;;;2.23;1.30;;;;;;;5.49;36.84;98537.31;5037002;28;20127;-71
2022/03/07 02:36:55;;;;;;;1.40;1.30;;;;;;;5.49;37.12;98546.00;5036009;28;20529;-69
2022/03/07 02:39:25;;;;;;;2.43;1.63;;;;;;;5.41;37.55;98542.50;5052876;28;20461;-70
2022/03/07 02:41:51;;;;;;;3.97;1.60;;;;;;;5.41;37.57;98550.38;5035968;28;20135;-70
2022/03/07 02:44:18;;;;;;;3.77;1.70;;;;;;;5.38;37.60;98546.28;5019519;28;20106;-70
2022/03/07 02:46:44;;;;;;;2.63;1.30;;;;;;;5.44;37.42;98550.09;5019465;28;20504;-70
2022/03/07 02:49:10;;;;;;;2.70;1.43;;;;;;;5.53;37.18;98546.53;5035551;28;20079;-69
2022/03/07 02:51:36;;;;;;;3.43;1.20;;;;;;;5.50;37.35;98547.69;5052588;28;20084;-70
2022/03/07 02:54:03;;;;;;;1.80;1.17;;;;;;;5.59;37.33;98554.66;5019112;28;20142;-70
2022/03/07 02:56:29;;;;;;;1.63;1.30;;;;;;;5.44;37.24;98550.91;5052542;28;20051;-69
2022/03/07 02:58:55;;;;;;;3.57;1.40;;;;;;;5.43;37.40;98543.19;5019192;28;20075;-69
2022/03/07 03:01:21;;;;;;;1.90;1.30;;;;;;;5.39;37.45;98545.28;5035517;28;20041;-69
2022/03/07 03:03:47;;;;;;;1.70;1.33;;;;;;;5.33;37.93;98552.94;5018893;28;20056;-70
2022/03/07 03:06:12;;;;;;;3.30;1.63;;;;;;;5.19;37.72;98528.84;5052083;28;20048;-69
2022/03/07 03:08:38;;;;;;;2.87;1.20;;;;;;;5.25;37.83;98548.44;5035381;28;20040;-69
2022/03/07 03:11:04;;;;;;;3.53;1.57;;;;;;;5.06;38.03;98523.09;5035236;28;20497;-70
2022/03/07 03:13:30;;;;;;;2.60;1.40;;;;;;;5.35;37.74;98556.25;5052463;28;20513;-69
2022/03/07 03:15:56;;;;;;;1.60;1.17;;;;;;;5.10;38.05;98550.75;5068998;28;20059;-69
2022/03/07 03:18:22;;;;;;;2.10;1.33;;;;;;;5.23;38.09;98542.50;5036544;28;20562;-69
2022/03/07 03:20:50;;;;;;;3.90;1.60;;;;;;;5.45;38.04;98555.19;5038977;28;20040;-69
2022/03/07 03:23:17;;;;;;;3.83;1.50;;;;;;;5.43;37.78;98549.25;5055510;28;20052;-69
2022/03/07 03:25:43;;;;;;;2.33;1.30;;;;;;;5.33;38.12;98545.06;5039185;28;20052;-69
2022/03/07 03:28:09;;;;;;;6.23;1.40;;;;;;;5.23;37.88;98540.69;5022647;28;20048;-70
2022/03/07 03:30:35;;;;;;;3.60;1.33;;;;;;;5.33;37.83;98551.16;5038876;28;20040;-69
2022/03/07 03:33:02;;;;;;;2.37;1.40;;;;;;;5.32;37.81;98551.31;5039179;28;20393;-70
2022/03/07 03:35:27;;;;;;;5.13;1.67;;;;;;;5.02;38.02;98502.50;5038867;28;20055;-69
2022/03/07 03:37:53;;;;;;;4.87;1.80;;;;;;;5.31;38.02;98547.84;5055499;28;20040;-70
2022/03/07 03:40:20;;;;;;;2.87;1.27;;;;;;;5.38;37.92;98541.00;5038701;28;20253;-70
2022/03/07 03:42:46;;;;;;;1.30;1.20;;;;;;;5.38;37.92;98548.91;5073300;28;20055;-70
2022/03/07 03:45:12;;;;;;;2.83;1.27;;;;;;;5.34;38.29;98552.78;5038506;28;20090;-70
2022/03/07 03:47:39;;;;;;;4.00;1.40;;;;;;;5.21;38.10;98508.44;5071901;28;20051;-69
2022/03/07 03:50:07;;;;;;;5.17;1.40;;;;;;;5.52;38.14;98537.00;5038558;28;20106;-70
2022/03/07 03:52:37;;;;;;;1.93;1.40;;;;;;;5.40;38.28;98531.13;5055710;28;20123;-69
2022/03/07 03:55:04;;;;;;;1.97;1.50;;;;;;;5.39;38.10;98533.91;5072007;28;20048;-70
2022/03/07 03:57:30;;;;;;;1.67;1.40;;;;;;;5.41;38.19;98537.22;5071956;28;20044;-69
2022/03/07 03:59:56;;;;;;;3.73;1.70;;;;;;;5.45;37.93;98539.41;5055541;28;20143;-69
2022/03/07 04:02:25;;;;;;;2.53;1.63;;;;;;;5.52;37.96;98529.91;5021492;28;20514;-69
2022/03/07 04:04:53;;;;;;;2.33;1.70;;;;;;;5.28;38.17;98534.97;5039336;28;20055;-69
2022/03/07 04:07:19;;;;;;;4.67;1.77;;;;;;;5.37;38.14;98541.97;5038058;28;20424;-69
2022/03/07 04:09:45;;;;;;;7.23;2.60;;;;;;;5.07;38.42;98513.41;5021639;28;20133;-69
2022/03/07 04:12:11;;;;;;;6.17;1.87;;;;;;;5.27;38.33;98540.41;5038048;28;20063;-69
2022/03/07 04:14:37;;;;;;;3.23;1.73;;;;;;;5.29;38.04;98538.44;5038188;28;20064;-69
2022/03/07 04:17:05;;;;;;;3.60;1.80;;;;;;;5.34;38.50;98534.38;5021933;28;20044;-69
2022/03/07 04:19:31;;;;;;;4.47;1.57;;;;;;;5.30;38.28;98535.66;5071533;28;20131;-69
2022/03/07 04:21:56;;;;;;;3.37;1.47;;;;;;;5.12;38.73;98532.19;5071155;28;20139;-69
2022/03/07 04:24:22;;;;;;;3.10;1.77;;;;;;;5.15;38.65;98539.81;5021322;28;20036;-69
2022/03/07 04:26:49;;;;;;;6.57;1.70;;;;;;;5.09;38.63;98521.97;5038171;28;20424;-69
2022/03/07 04:29:15;;;;;;;4.23;1.60;;;;;;;5.26;38.27;98539.56;5055232;28;20040;-69
2022/03/07 04:31:43;;;;;;;3.10;1.50;;;;;;;5.43;38.67;98541.34;5071458;28;20130;-70
2022/03/07 04:34:09;;;;;;;3.53;1.80;;;;;;;5.39;38.68;98540.00;5037666;28;20408;-71
2022/03/07 04:36:37;;;;;;;6.20;2.23;;;;;;;5.47;38.53;98547.16;5021654;28;20079;-70
2022/03/07 04:39:05;;;;;;;3.23;1.40;;;;;;;5.47;38.48;98542.72;5054778;28;20464;-69
2022/03/07 04:41:32;;;;;;;2.40;1.40;;;;;;;5.46;38.28;98548.13;5054530;28;20036;-69
2022/03/07 04:43:58;;;;;;;2.60;1.60;;;;;;;5.47;38.42;98539.25;5054088;28;20114;-69
2022/03/07 04:46:25;;;;;;;1.43;1.30;;;;;;;5.42;38.52;98539.72;5037546;28;20098;-69
2022/03/07 04:48:51;;;;;;;6.27;1.60;;;;;;;5.50;38.34;98546.84;5037602;28;20477;-69
2022/03/07 04:51:17;;;;;;;4.47;1.60;;;;;;;5.43;38.48;98545.81;5053893;28;20043;-69
2022/03/07 04:53:44;;;;;;;4.63;1.83;;;;;;;5.31;38.34;98515.41;5037207;28;20033;-69
2022/03/07 04:56:10;;;;;;;3.77;1.77;;;;;;;5.53;38.28;98544.75;5037380;28;20093;-70
2022/03/07 04:58:36;;;;;;;3.53;1.90;;;;;;;5.61;38.27;98536.91;5037628;28;20135;-69
2022/03/07 05:01:02;;;;;;;5.67;1.97;;;;;;;5.49;38.38;98535.47;5037308;28;20064;-70
2022/03/07 05:03:28;;;;;;;3.83;1.70;;;;;;;5.51;38.37;98541.41;5053678;28;20484;-70
2022/03/07 05:05:54;;;;;;;4.27;1.77;;;;;;;5.41;38.20;98517.00;5020563;28;20045;-70
2022/03/07 05:08:19;;;;;;;4.50;1.60;;;;;;;5.57;38.03;98535.53;5020580;28;20044;-70
2022/03/07 05:10:45;;;;;;;4.40;1.80;;;;;;;5.64;38.17;98533.97;5037529;28;20057;-70
2022/03/07 05:13:11;;;;;;;2.30;1.93;;;;;;;5.58;37.75;98508.22;5037931;28;20045;-70
2022/03/07 05:15:37;;;;;;;5.07;1.73;;;;;;;5.64;38.00;98536.59;5020560;28;20044;-70
2022/03/07 05:18:04;;;;;;;2.03;1.43;;;;;;;5.82;37.72;98536.56;5087585;28;20071;-70
2022/03/07 05:20:30;;;;;;;5.77;1.60;;;;;;;5.80;37.55;98530.59;5037070;28;20063;-70
2022/03/07 05:22:56;;;;;;;1.97;1.53;;;;;;;5.83;37.52;98544.31;5037129;28;20471;-70
2022/03/07 05:25:22;;;;;;;1.50;1.40;;;;;;;5.81;37.61;98529.63;5053669;28;20572;-70
2022/03/07 05:27:48;;;;;;;3.97;1.60;;;;;;;5.99;37.46;98539.16;5037197;28;20115;-70
2022/03/07 05:30:17;;;;;;;7.83;1.77;;;;;;;5.98;37.62;98537.47;5069934;28;20044;-70
2022/03/07 05:32:48;;;;;;;4.87;1.50;;;;;;;6.21;37.36;98545.69;5053245;28;20086;-69
2022/03/07 05:35:14;;;;;;;4.07;1.73;;;;;;;5.81;37.27;98508.53;5069861;28;20143;-70
2022/03/07 05:37:41;;;;;;;6.57;1.80;;;;;;;6.07;37.42;98543.66;5036743;28;20032;-70
2022/03/07 05:40:08;;;;;;;6.30;1.77;;;;;;;6.08;37.26;98547.91;5020205;28;20036;-70
2022/03/07 05:42:34;;;;;;;8.50;1.60;;;;;;;5.88;37.45;98549.13;5068686;28;20048;-69
2022/03/07 05:45:03;;;;;;;3.87;1.60;;;;;;;6.13;37.36;98543.00;5036270;28;20044;-70
2022/03/07 05:47:29;;;;;;;5.83;1.73;;;;;;;6.00;37.30;98555.78;5052742;28;20489;-69
2022/03/07 05:49:56;;;;;;;5.33;2.07;;;;;;;6.00;37.34;98553.13;5036330;28;20051;-70
2022/03/07 05:52:22;;;;;;;3.53;1.70;;;;;;;5.97;37.15;98532.38;5018759;28;20061;-71
2022/03/07 05:54:48;;;;;;;6.33;2.50;;;;;;;6.08;37.03;98543.50;5036041;28;20071;-69
2022/03/07 05:57:14;;;;;;;13.70;2.80;;;;;;;6.05;37.26;98545.59;5019448;28;20044;-68
2022/03/07 05:59:39;;;;;;;4.17;2.13;;;;;;;6.05;37.36;98548.25;5036492;28;20037;-67
2022/03/07 06:02:05;;;;;;;6.57;2.90;;;;;;;6.10;36.80;98549.44;5052569;28;20504;-66
2022/03/07 06:04:31;;;;;;;4.90;2.40;;;;;;;6.17;36.95;98552.25;5035806;28;20041;-67
2022/03/07 06:06:57;;;;;;;7.43;2.40;;;;;;;6.23;36.91;98556.91;5036115;28;20036;-68
2022/03/07 06:09:23;;;;;;;9.40;2.00;;;;;;;6.27;36.94;98556.41;5035896;28;20040;-67
2022/03/07 06:11:48;;;;;;;3.53;2.37;;;;;;;6.28;36.66;98562.53;5052741;28;20060;-68
2022/03/07 06:14:15;;;;;;;3.00;1.97;;;;;;;6.30;36.83;98563.22;5019513;28;20040;-68
2022/03/07 06:16:40;;;;;;;10.43;3.00;;;;;;;6.17;37.01;98568.91;5052787;28;20044;-67
2022/03/07 06:19:06;;;;;;;10.90;3.07;;;;;;;6.21;36.86;98572.06;5052480;28;20048;-68
2022/03/07 06:21:32;;;;;;;16.00;2.63;;;;;;;6.18;36.80;98578.47;5052409;28;20048;-68
2022/03/07 06:23:58;;;;;;;9.50;3.20;;;;;;;6.24;37.25;98569.13;5019303;28;20064;-70
2022/03/07 06:26:24;;;;;;;5.73;2.90;;;;;;;6.28;36.86;98568.63;5035379;28;20408;-69
2022/03/07 06:28:50;;;;;;;4.80;2.50;;;;;;;6.44;36.71;98576.63;5019517;28;20044;-70
2022/03/07 06:31:16;;;;;;;5.53;2.67;;;;;;;6.41;36.95;98568.22;5019220;28;20226;-69
2022/03/07 06:33:42;;;;;;;4.57;2.70;;;;;;;6.35;36.60;98566.22;5035919;28;20040;-73
2022/03/07 06:36:08;;;;;;;4.93;1.97;;;;;;;6.32;36.39;98567.34;5069382;28;20044;-70
2022/03/07 06:38:34;;;;;;;4.33;2.30;;;;;;;6.32;36.51;98571.81;5035540;28;20500;-69
2022/03/07 06:41:00;;;;;;;4.80;2.40;;;;;;;6.46;36.64;98571.19;5052421;28;20049;-69
2022/03/07 06:43:28;;;;;;;5.37;2.20;;;;;;;6.44;36.47;98575.81;5019882;28;20049;-68
2022/03/07 06:45:54;;;;;;;7.03;2.70;;;;;;;6.50;35.96;98581.25;5052073;28;20051;-69
2022/03/07 06:48:21;;;;;;;5.60;2.47;;;;;;;6.66;36.08;98581.34;5019204;28;20037;-69
2022/03/07 06:50:47;;;;;;;6.07;2.50;;;;;;;6.49;35.92;98560.31;5035528;28;20044;-68
2022/03/07 06:53:13;;;;;;;5.37;2.20;;;;;;;6.59;35.96;98568.94;5037186;28;20066;-69
2022/03/07 06:55:39;;;;;;;5.17;2.10;;;;;;;6.63;36.67;98580.81;5039831;28;20037;-69
2022/03/07 06:58:07;;;;;;;9.13;2.23;;;;;;;6.70;35.82;98579.22;5056202;28;20098;-68
2022/03/07 07:00:33;;;;;;;8.07;2.50;;;;;;;6.74;35.61;98578.72;5072558;28;20539;-69
2022/03/07 07:02:59;;;;;;;6.70;2.90;;;;;;;6.83;35.75;98587.50;5022786;28;20138;-67
2022/03/07 07:05:25;;;;;;;3.33;2.07;;;;;;;6.80;35.70;98559.63;5039316;28;20079;-66
2022/03/07 07:07:51;;;;;;;3.70;1.97;;;;;;;6.62;35.88;98561.56;5023077;28;20546;-67
2022/03/07 07:10:20;;;;;;;9.33;2.80;;;;;;;6.83;35.66;98582.22;5039511;28;20074;-67
2022/03/07 07:12:49;;;;;;;9.27;3.80;;;;;;;7.05;35.14;98586.06;5056475;28;20504;-68
2022/03/07 07:15:15;;;;;;;7.33;2.80;;;;;;;6.77;35.37;98573.13;5056026;28;20131;-76
2022/03/07 07:17:41;;;;;;;4.70;2.57;;;;;;;6.82;35.24;98581.41;5023104;28;20071;-65
2022/03/07 07:20:08;;;;;;;10.93;4.40;;;;;;;7.04;35.45;98574.72;5039005;28;20527;-66
2022/03/07 07:22:34;;;;;;;8.50;3.30;;;;;;;6.97;35.19;98576.31;5038752;28;20531;-67
2022/03/07 07:25:01;;;;;;;8.03;2.93;;;;;;;7.12;34.94;98579.97;5039192;28;20051;-66
2022/03/07 07:27:28;;;;;;;7.43;2.53;;;;;;;7.01;35.12;98575.03;5072121;28;20053;-66
2022/03/07 07:29:54;;;;;;;8.97;2.63;;;;;;;6.77;35.43;98546.75;5072309;28;20086;-66
2022/03/07 07:32:20;;;;;;;5.43;2.53;;;;;;;6.95;34.97;98574.84;5072217;28;20053;-67
2022/03/07 07:34:46;;;;;;;6.20;2.77;;;;;;;7.06;34.92;98572.72;5038907;28;20043;-71
2022/03/07 07:37:12;;;;;;;4.90;2.50;;;;;;;7.04;34.91;98572.06;5056581;28;20412;-67
2022/03/07 07:39:37;;;;;;;5.97;2.77;;;;;;;6.97;35.02;98571.03;5039706;28;20072;-66
2022/03/07 07:42:04;;;;;;;6.30;3.40;;;;;;;6.97;35.00;98562.28;5022390;28;20453;-66
2022/03/07 07:44:33;;;;;;;8.63;3.23;;;;;;;6.97;34.96;98563.13;5039570;28;20037;-68
2022/03/07 07:46:59;;;;;;;15.47;3.30;;;;;;;6.96;34.94;98552.72;5022347;28;20051;-67
2022/03/07 07:49:25;;;;;;;5.00;2.50;;;;;;;6.96;35.31;98565.94;5044749;28;20063;-66
2022/03/07 07:51:51;;;;;;;5.53;2.33;;;;;;;6.97;34.99;98549.09;5047823;28;20173;-66
2022/03/07 07:54:17;;;;;;;6.00;2.80;;;;;;;6.90;34.87;98552.38;5084667;28;20131;-66
2022/03/07 07:56:43;;;;;;;8.07;3.70;;;;;;;7.18;35.09;98578.53;5075493;28;20048;-70
2022/03/07 07:59:10;;;;;;;9.93;4.10;;;;;;;7.40;34.51;98586.63;5075039;28;20044;-68
2022/03/07 08:01:36;;;;;;;10.47;3.00;;;;;;;7.06;34.85;98556.06;5074876;28;20051;-69
2022/03/07 08:04:02;;;;;;;5.67;2.43;;;;;;;7.27;35.08;98573.09;5074837;28;20047;-68
2022/03/07 08:06:28;;;;;;;7.03;3.20;;;;;;;7.23;34.82;98565.63;5056611;28;20041;-70
2022/03/07 08:08:54;;;;;;;5.40;2.30;;;;;;;7.20;34.88;98568.59;5018303;28;20044;-71
2022/03/07 08:11:20;;;;;;;4.27;2.10;;;;;;;7.21;34.92;98572.91;5008782;28;20052;-67
2022/03/07 08:13:46;;;;;;;9.07;2.30;;;;;;;7.18;34.66;98566.13;5034254;28;20052;-68
2022/03/07 08:16:12;;;;;;;3.87;1.93;;;;;;;6.95;35.41;98557.16;5050833;28;20045;-69
2022/03/07 08:18:38;;;;;;;5.97;2.53;;;;;;;7.04;35.39;98558.88;5034247;28;20202;-69
2022/03/07 08:21:04;;;;;;;5.47;2.00;;;;;;;7.18;35.24;98554.75;5067382;28;20043;-70
2022/03/07 08:23:31;;;;;;;3.33;1.97;;;;;;;7.13;35.01;98549.97;5051092;28;20045;-67
2022/03/07 08:25:57;;;;;;;4.73;2.20;;;;;;;7.32;34.80;98559.41;5033418;28;20183;-68
2022/03/07 08:28:24;;;;;;;5.07;2.33;;;;;;;7.49;34.55;98553.16;5045776;28;20052;-68
2022/03/07 08:30:50;;;;;;;6.40;2.50;;;;;;;7.77;34.42;98557.06;5054169;28;20049;-68
2022/03/07 08:33:15;;;;;;;6.47;2.70;;;;;;;7.94;33.21;98542.84;5059185;28;20047;-70
2022/03/07 08:35:41;;;;;;;8.03;2.90;;;;;;;7.88;33.62;98565.50;5066759;28;20051;-71
2022/03/07 08:38:07;;;;;;;4.90;2.33;;;;;;;8.31;33.11;98567.75;5043344;28;20455;-72
2022/03/07 08:40:33;;;;;;;4.47;2.20;;;;;;;8.67;32.37;98572.59;5070730;28;20041;-71
2022/03/07 08:43:02;;;;;;;3.83;2.10;;;;;;;9.08;31.68;98572.22;5037904;28;20071;-70
2022/03/07 08:45:27;;;;;;;7.87;2.37;;;;;;;9.42;30.68;98564.72;5070605;28;20084;-71
2022/03/07 08:47:55;;;;;;;4.30;2.10;;;;;;;9.90;30.11;98574.13;5020152;28;20044;-67
2022/03/07 08:50:21;;;;;;;6.90;1.90;;;;;;;9.98;29.78;98577.50;5070056;28;20083;-66
2022/03/07 08:52:47;;;;;;;12.68;2.50;;;;;;;10.01;29.70;98560.38;5052538;28;20131;-65
2022/03/07 08:55:14;;;;;;;8.13;2.38;;;;;;;10.20;29.43;98574.00;5053974;28;20040;-67
2022/03/07 08:57:40;;;;;;;7.30;2.50;;;;;;;9.98;29.54;98577.50;5020183;28;20094;-68
2022/03/07 09:00:08;;;;;;;5.78;2.72;;;;;;;9.90;30.07;98550.25;5053161;28;20044;-65
2022/03/07 09:02:34;;;;;;;3.78;2.10;;;;;;;10.08;29.42;98566.66;5053287;28;20381;-65
2022/03/07 09:05:00;;;;;;;7.03;2.25;;;;;;;10.14;29.13;98569.44;5049350;28;20095;-65
2022/03/07 09:07:28;;;;;;;3.47;2.33;;;;;;;10.16;29.17;98559.44;5016672;28;20044;-65
2022/03/07 09:09:56;;;;;;;4.43;1.75;;;;;;;10.33;29.02;98572.56;5049850;28;20063;-65
2022/03/07 09:12:30;;;;;;;4.18;1.38;;;;;;;10.10;28.62;98548.75;5016849;28;20056;-66
2022/03/07 09:14:58;;;;;;;12.70;2.25;;;;;;;10.25;28.89;98568.16;5050863;28;20045;-65
2022/03/07 09:17:25;;;;;;;6.03;1.75;;;;;;;10.02;29.06;98552.25;5049252;28;20048;-64
2022/03/07 09:19:51;;;;;;;9.00;2.00;;;;;;;9.97;29.07;98544.03;5033150;28;20044;-65
2022/03/07 09:22:17;;;;;;;7.50;2.35;;;;;;;10.11;28.84;98571.63;5066719;28;20045;-64
2022/03/07 09:24:43;;;;;;;5.20;2.08;;;;;;;9.93;29.18;98563.13;5066348;28;20051;-65
2022/03/07 09:27:09;;;;;;;6.97;2.20;;;;;;;10.06;29.47;98565.97;5049630;28;20131;-66
2022/03/07 09:29:36;;;;;;;5.18;2.10;;;;;;;10.11;29.05;98571.63;5016202;28;20064;-63
2022/03/07 09:32:05;;;;;;;7.82;2.67;;;;;;;10.43;28.48;98565.13;5049303;28;20062;-63
2022/03/07 09:34:32;;;;;;;6.55;1.88;;;;;;;10.63;28.09;98569.72;5050800;28;20119;-64
2022/03/07 09:36:58;;;;;;;8.32;2.00;;;;;;;10.73;28.16;98567.59;5048762;28;20045;-65
2022/03/07 09:39:24;;;;;;;4.65;1.77;;;;;;;10.74;28.22;98563.94;5032376;28;20045;-65
2022/03/07 09:41:49;;;;;;;12.88;2.10;;;;;;;10.80;27.57;98533.16;5049474;28;20072;-66
2022/03/07 09:44:15;;;;;;;6.38;1.77;;;;;;;11.01;27.73;98570.41;4998810;28;20069;-66
2022/03/07 09:46:41;;;;;;;3.15;1.58;;;;;;;10.88;27.32;98564.91;5015869;28;20049;-65
2022/03/07 09:49:07;;;;;;;2.10;1.30;;;;;;;10.96;27.29;98556.84;5017919;28;20059;-67
2022/03/07 09:51:34;;;;;;;4.18;1.30;;;;;;;11.02;26.95;98562.25;5050029;28;20044;-66
2022/03/07 09:54:01;;;;;;;2.63;1.20;;;;;;;11.29;26.58;98547.41;5030331;28;20041;-71
2022/03/07 09:56:27;;;;;;;6.90;1.80;;;;;;;11.82;26.06;98550.38;4996244;28;20051;-70
2022/03/07 09:58:53;;;;;;;3.25;1.52;;;;;;;12.85;24.73;98559.25;4997060;28;20048;-68
2022/03/07 10:01:19;;;;;;;5.25;1.70;;;;;;;14.02;23.03;98557.88;5023171;28;20041;-69
2022/03/07 10:03:48;;;;;;;3.83;1.80;;;;;;;15.20;21.72;98548.53;5060691;28;20144;-68
2022/03/07 10:06:16;;;;;;;4.53;1.88;;;;;;;16.50;20.50;98514.59;4996102;28;20057;-69
2022/03/07 10:09:01;;;;;;;2.25;1.60;;;;;;;17.69;19.08;98547.75;5045826;28;20098;-68
2022/03/07 10:11:29;;;;;;;8.00;2.20;;;;;;;19.74;17.03;98554.22;5045458;28;20114;-69
2022/03/07 10:14:21;;;;;;;9.30;4.75;;;;;;;21.12;15.44;98526.13;5045798;28;20044;-71
2022/03/07 10:16:47;;;;;;;9.75;5.50;;;;;;;21.55;14.75;98553.09;5045011;28;20047;-72
2022/03/07 10:19:15;;;;;;;9.30;5.07;;;;;;;19.92;16.01;98548.59;5028207;28;20045;-74
2022/03/07 10:21:46;;;;;;;3.10;1.73;;;;;;;20.26;15.49;98535.97;5025708;28;20427;-75
2022/03/07 10:24:12;;;;;;;4.10;2.00;;;;;;;21.59;14.40;98551.50;5026727;28;20033;-73
2022/03/07 10:26:38;;;;;;;5.63;2.83;;;;;;;23.23;13.11;98555.69;5062492;28;20048;-74
2022/03/07 10:29:05;;;;;;;5.43;2.15;;;;;;;25.36;11.16;98542.66;5032459;28;20501;-75
2022/03/07 10:31:31;;;;;;;4.00;2.10;;;;;;;26.49;10.41;98543.25;5049444;28;20520;-73
2022/03/07 10:34:08;;;;;;;4.95;2.65;;;;;;;25.04;10.71;98538.69;5049439;28;20492;-73
2022/03/07 10:36:42;;;;;;;12.35;8.32;;;;;;;22.17;12.73;98533.66;5067549;28;20040;-72
2022/03/07 10:39:13;;;;;;;3.95;2.17;;;;;;;20.27;14.10;98538.41;5018242;28;20047;-73
2022/03/07 10:41:40;;;;;;;5.43;1.90;;;;;;;20.85;14.08;98536.00;5050597;28;20048;-75
2022/03/07 10:44:09;;;;;;;4.25;2.40;;;;;;;20.42;14.04;98530.53;5052257;28;20435;-73
2022/03/07 10:46:35;;;;;;;8.82;2.60;;;;;;;20.19;14.47;98543.41;5051993;28;20048;-73
2022/03/07 10:49:01;;;;;;;7.82;2.45;;;;;;;19.87;14.44;98541.25;5068134;28;20492;-71
2022/03/07 10:51:29;;;;;;;5.70;2.22;;;;;;;19.54;14.58;98537.69;5037899;28;20040;-72
2022/03/07 10:54:06;;;;;;;5.20;2.50;;;;;;;19.24;14.57;98529.81;5061122;28;20538;-72
2022/03/07 10:56:36;;;;;;;13.93;8.57;;;;;;;18.70;15.10;98527.63;5018899;28;20063;-73
2022/03/07 10:59:11;;;;;;;8.88;2.67;;;;;;;17.98;15.77;98528.06;5025803;28;20109;-73
2022/03/07 11:01:40;;;;;;;6.32;3.58;;;;;;;17.05;16.89;98512.72;5036359;28;20046;-72
2022/03/07 11:04:06;;;;;;;4.55;2.50;;;;;;;16.29;17.78;98525.72;5073969;28;20047;-72
2022/03/07 11:06:32;;;;;;;6.95;1.60;;;;;;;15.04;18.60;98482.19;5021486;28;20040;-71
2022/03/07 11:08:58;;;;;;;5.13;1.88;;;;;;;14.03;20.24;98516.81;5039644;28;20619;-73
2022/03/07 11:11:24;;;;;;;8.25;2.33;;;;;;;13.79;20.48;98534.28;5057964;28;20052;-72
2022/03/07 11:13:54;;;;;;;8.23;2.83;;;;;;;13.04;21.79;98515.88;5059378;28;20097;-74
2022/03/07 11:16:21;;;;;;;5.07;1.60;;;;;;;12.77;22.46;98535.44;5035206;28;20043;-72
2022/03/07 11:18:54;;;;;;;4.38;2.10;;;;;;;12.64;22.45;98539.91;5035352;28;20484;-73
2022/03/07 11:21:21;;;;;;;8.35;2.75;;;;;;;12.21;22.93;98517.91;5085705;28;20044;-72
2022/03/07 11:23:49;;;;;;;7.20;1.80;;;;;;;11.61;23.36;98515.81;5068881;28;20052;-72
2022/03/07 11:26:20;;;;;;;3.95;1.90;;;;;;;11.66;23.77;98523.25;5068505;28;20052;-72
2022/03/07 11:28:51;;;;;;;2.00;1.50;;;;;;;13.04;22.14;98531.88;5051742;28;20524;-72
2022/03/07 11:31:26;;;;;;;3.00;1.25;;;;;;;14.35;20.70;98534.66;5051836;28;20056;-73
2022/03/07 11:33:53;;;;;;;3.45;1.48;;;;;;;14.76;19.70;98527.97;5032598;28;20056;-74
2022/03/07 11:36:24;;;;;;;2.72;1.55;;;;;;;15.27;19.38;98548.53;5040698;28;20717;-75
2022/03/07 11:39:01;;;;;;;2.95;1.27;;;;;;;15.13;19.61;98537.03;5074892;28;20134;-74